Time,TemperatureF,DewpointF,PressureIn,WindDirection,WindDirectionDegrees,WindSpeedMPH,WindSpeedGustMPH,Humidity,HourlyPrecipIn,Conditions,Clouds,dailyrainin,SoftwareType,DateUTC
2013-03-11 00:03:00,62.0,54.0,30.06,ENE,77,1.0,3.0,76,0.00,,,0.00,,2013-03-11 05:03:00,
2013-03-11 00:12:00,62.0,54.0,30.06,ENE,77,1.0,3.0,76,0.00,,,0.00,,2013-03-11 05:12:00,
2013-03-11 00:22:00,61.0,54.0,30.05,NE,54,1.0,2.0,77,0.00,,,0.00,,2013-03-11 05:22:00,
2013-03-11 00:32:00,61.0,54.0,30.05,East,80,1.0,2.0,77,0.00,,,0.00,,2013-03-11 05:32:00,
2013-03-11 00:42:00,61.0,54.0,30.05,East,80,1.0,2.0,77,0.00,,,0.00,,2013-03-11 05:42:00,
2013-03-11 00:52:00,61.0,54.0,30.05,East,80,1.0,2.0,77,0.00,,,0.00,,2013-03-11 05:52:00,
2013-03-11 01:02:00,59.0,53.0,30.04,ENE,68,1.0,1.0,80,0.00,,,0.00,,2013-03-11 06:02:00,
2013-03-11 01:12:00,59.0,53.0,30.04,ENE,68,1.0,1.0,80,0.00,,,0.00,,2013-03-11 06:12:00,
2013-03-11 01:22:00,59.0,53.0,30.04,ENE,68,1.0,1.0,80,0.00,,,0.00,,2013-03-11 06:22:00,
2013-03-11 01:33:00,58.0,52.0,30.04,East,90,1.0,1.0,81,0.00,,,0.00,,2013-03-11 06:33:00,
2013-03-11 01:42:00,58.0,52.0,30.04,East,90,1.0,1.0,81,0.00,,,0.00,,2013-03-11 06:42:00,
2013-03-11 01:52:00,58.0,53.0,30.04,ENE,68,1.0,1.0,82,0.00,,,0.00,,2013-03-11 06:52:00,
2013-03-11 02:03:00,58.0,53.0,30.03,ENE,68,1.0,1.0,82,0.00,,,0.00,,2013-03-11 07:03:00,
2013-03-11 02:12:00,58.0,53.0,30.03,ENE,68,1.0,1.0,82,0.00,,,0.00,,2013-03-11 07:12:00,
2013-03-11 02:22:00,58.0,53.0,30.03,ENE,68,1.0,1.0,82,0.00,,,0.00,,2013-03-11 07:22:00,
2013-03-11 02:32:00,58.0,53.0,30.02,ENE,68,2.0,2.0,83,0.00,,,0.00,,2013-03-11 07:32:00,
2013-03-11 02:42:00,58.0,53.0,30.02,ENE,68,2.0,2.0,83,0.00,,,0.00,,2013-03-11 07:42:00,
2013-03-11 02:52:00,58.0,53.0,30.02,ENE,68,2.0,2.0,83,0.00,,,0.00,,2013-03-11 07:52:00,
2013-03-11 03:02:00,58.0,54.0,30.00,ENE,68,2.0,2.0,85,0.00,,,0.00,,2013-03-11 08:02:00,
2013-03-11 03:12:00,58.0,54.0,30.00,ENE,68,2.0,2.0,85,0.00,,,0.00,,2013-03-11 08:12:00,
2013-03-11 03:22:00,58.0,53.0,30.00,ENE,68,2.0,4.0,84,0.00,,,0.00,,2013-03-11 08:22:00,
2013-03-11 03:33:00,58.0,53.0,29.99,NE,56,3.0,3.0,84,0.00,,,0.00,,2013-03-11 08:33:00,
2013-03-11 03:42:00,58.0,53.0,29.99,NE,56,3.0,3.0,84,0.00,,,0.00,,2013-03-11 08:42:00,
2013-03-11 03:52:00,58.0,54.0,29.99,East,90,1.0,3.0,85,0.00,,,0.00,,2013-03-11 08:52:00,
2013-03-11 04:02:00,58.0,54.0,29.98,ENE,68,1.0,2.0,85,0.00,,,0.00,,2013-03-11 09:02:00,
2013-03-11 04:12:00,58.0,54.0,29.98,ENE,68,1.0,2.0,85,0.00,,,0.00,,2013-03-11 09:12:00,
2013-03-11 04:23:00,58.0,54.0,29.97,ENE,71,2.0,4.0,85,0.00,,,0.00,,2013-03-11 09:23:00,
2013-03-11 04:32:00,58.0,54.0,29.97,ENE,68,2.0,3.0,85,0.00,,,0.00,,2013-03-11 09:32:00,
2013-03-11 04:42:00,58.0,54.0,29.97,ENE,68,2.0,3.0,85,0.00,,,0.00,,2013-03-11 09:42:00,
2013-03-11 04:52:00,58.0,54.0,29.97,ENE,57,2.0,3.0,85,0.00,,,0.00,,2013-03-11 09:52:00,
2013-03-11 05:02:00,58.0,54.0,29.96,East,79,3.0,3.0,86,0.00,,,0.00,,2013-03-11 10:02:00,
2013-03-11 05:12:00,58.0,54.0,29.96,East,79,3.0,3.0,86,0.00,,,0.00,,2013-03-11 10:12:00,
2013-03-11 05:22:00,58.0,54.0,29.96,East,87,2.0,3.0,86,0.00,,,0.00,,2013-03-11 10:22:00,
2013-03-11 05:32:00,58.0,54.0,29.96,East,90,2.0,4.0,86,0.00,,,0.00,,2013-03-11 10:32:00,
2013-03-11 05:42:00,58.0,54.0,29.96,East,90,2.0,4.0,86,0.00,,,0.00,,2013-03-11 10:42:00,
2013-03-11 05:52:00,58.0,54.0,29.97,SE,135,1.0,1.0,85,0.00,,,0.00,,2013-03-11 10:52:00,
2013-03-11 06:02:00,57.0,53.0,29.98,East,84,1.0,1.0,85,0.00,,,0.00,,2013-03-11 11:02:00,
2013-03-11 06:12:00,57.0,53.0,29.98,East,84,1.0,1.0,85,0.00,,,0.00,,2013-03-11 11:12:00,
2013-03-11 06:22:00,56.0,52.0,29.98,ENE,68,0.0,0.0,85,0.00,,,0.00,,2013-03-11 11:22:00,
2013-03-11 06:32:00,56.0,52.0,29.98,ENE,68,0.0,0.0,85,0.00,,,0.00,,2013-03-11 11:32:00,
2013-03-11 06:42:00,56.0,52.0,29.98,ENE,68,0.0,0.0,85,0.00,,,0.00,,2013-03-11 11:42:00,
2013-03-11 06:53:00,56.0,52.0,29.99,ENE,68,0.0,0.0,85,0.00,,,0.00,,2013-03-11 11:53:00,
2013-03-11 07:02:00,56.0,52.0,29.99,ENE,68,1.0,1.0,85,0.00,,,0.00,,2013-03-11 12:02:00,
2013-03-11 07:12:00,56.0,52.0,29.99,ENE,68,1.0,1.0,85,0.00,,,0.00,,2013-03-11 12:12:00,
2013-03-11 07:22:00,57.0,53.0,29.99,ENE,77,1.0,1.0,85,0.00,,,0.00,,2013-03-11 12:22:00,
2013-03-11 07:32:00,57.0,53.0,29.99,East,90,0.0,1.0,86,0.00,,,0.00,,2013-03-11 12:32:00,
2013-03-11 07:43:00,57.0,53.0,29.99,East,90,0.0,1.0,86,0.00,,,0.00,,2013-03-11 12:43:00,
2013-03-11 07:53:00,59.0,55.0,30.00,ESE,118,2.0,3.0,86,0.00,,,0.00,,2013-03-11 12:53:00,
2013-03-11 08:02:00,59.0,55.0,30.00,East,84,2.0,4.0,86,0.00,,,0.00,,2013-03-11 13:02:00,
2013-03-11 08:12:00,59.0,55.0,30.00,East,84,2.0,4.0,86,0.00,,,0.00,,2013-03-11 13:12:00,
2013-03-11 08:22:00,61.0,56.0,30.01,East,80,1.0,2.0,85,0.00,,,0.00,,2013-03-11 13:22:00,
2013-03-11 08:32:00,62.0,57.0,30.01,ESE,107,2.0,3.0,85,0.00,,,0.00,,2013-03-11 13:32:00,
2013-03-11 08:42:00,62.0,57.0,30.01,ESE,107,2.0,3.0,85,0.00,,,0.00,,2013-03-11 13:42:00,
2013-03-11 08:53:00,65.0,60.0,30.00,ESE,117,3.0,7.0,84,0.00,,,0.00,,2013-03-11 13:53:00,
2013-03-11 09:02:00,67.0,62.0,30.01,SE,138,2.0,4.0,83,0.00,,,0.00,,2013-03-11 14:02:00,
2013-03-11 09:12:00,67.0,62.0,30.01,SE,138,2.0,4.0,83,0.00,,,0.00,,2013-03-11 14:12:00,
2013-03-11 09:22:00,69.0,62.0,30.01,ESE,120,3.0,6.0,79,0.00,,,0.00,,2013-03-11 14:22:00,
2013-03-11 09:33:00,71.0,63.0,30.00,SE,126,5.0,6.0,77,0.00,,,0.00,,2013-03-11 14:33:00,
2013-03-11 09:42:00,71.0,63.0,30.00,SE,126,5.0,6.0,77,0.00,,,0.00,,2013-03-11 14:42:00,
2013-03-11 09:53:00,73.0,64.0,30.01,SSE,158,7.0,9.0,73,0.00,,,0.00,,2013-03-11 14:53:00,
2013-03-11 10:02:00,74.0,64.0,30.01,SE,135,5.0,8.0,71,0.00,,,0.00,,2013-03-11 15:02:00,
2013-03-11 10:13:00,74.0,64.0,30.01,SE,135,5.0,8.0,71,0.00,,,0.00,,2013-03-11 15:13:00,
2013-03-11 10:22:00,75.0,63.0,30.00,SE,135,6.0,8.0,67,0.00,,,0.00,,2013-03-11 15:22:00,
2013-03-11 10:32:00,76.0,64.0,30.00,SE,132,8.0,8.0,66,0.00,,,0.00,,2013-03-11 15:32:00,
2013-03-11 10:42:00,76.0,64.0,30.00,SE,132,8.0,8.0,66,0.00,,,0.00,,2013-03-11 15:42:00,
2013-03-11 10:53:00,77.0,63.0,29.99,ESE,115,7.0,11.0,63,0.00,,,0.00,,2013-03-11 15:53:00,
2013-03-11 11:02:00,77.0,63.0,29.99,SE,125,7.0,8.0,61,0.00,,,0.00,,2013-03-11 16:02:00,
2013-03-11 11:12:00,77.0,63.0,29.99,SE,125,7.0,8.0,61,0.00,,,0.00,,2013-03-11 16:12:00,
2013-03-11 11:22:00,78.0,63.0,29.99,ESE,105,4.0,10.0,60,0.00,,,0.00,,2013-03-11 16:22:00,
2013-03-11 11:32:00,79.0,62.0,29.99,SSW,203,8.0,11.0,57,0.00,,,0.00,,2013-03-11 16:32:00,
2013-03-11 11:43:00,79.0,62.0,29.99,SSW,203,8.0,11.0,57,0.00,,,0.00,,2013-03-11 16:43:00,
2013-03-11 11:52:00,80.0,62.0,29.99,SW,216,4.0,9.0,55,0.00,,,0.00,,2013-03-11 16:52:00,
2013-03-11 12:02:00,81.0,63.0,29.99,SSW,203,5.0,6.0,54,0.00,,,0.00,,2013-03-11 17:02:00,
2013-03-11 12:15:00,81.0,63.0,29.99,SSW,203,5.0,6.0,54,0.00,,,0.00,,2013-03-11 17:15:00,
2013-03-11 12:27:00,80.0,62.0,29.99,SSW,212,3.0,5.0,54,0.00,,,0.00,,2013-03-11 17:27:00,
2013-03-11 12:36:00,81.0,63.0,29.98,SSW,203,3.0,7.0,55,0.00,,,0.00,,2013-03-11 17:36:00,
2013-03-11 12:42:00,81.0,63.0,29.98,SSW,203,3.0,7.0,55,0.00,,,0.00,,2013-03-11 17:42:00,
2013-03-11 12:53:00,80.0,63.0,29.99,SSW,203,1.0,4.0,56,0.00,,,0.00,,2013-03-11 17:53:00,
2013-03-11 13:02:00,81.0,63.0,29.99,South,185,4.0,5.0,55,0.00,,,0.00,,2013-03-11 18:02:00,
2013-03-11 13:12:00,81.0,63.0,29.99,South,185,4.0,5.0,55,0.00,,,0.00,,2013-03-11 18:12:00,
2013-03-11 13:23:00,82.0,64.0,29.99,South,180,2.0,7.0,55,0.00,,,0.00,,2013-03-11 18:23:00,
2013-03-11 13:32:00,82.0,63.0,29.99,South,180,2.0,3.0,53,0.00,,,0.00,,2013-03-11 18:32:00,
2013-03-11 13:42:00,82.0,63.0,29.99,South,180,2.0,3.0,53,0.00,,,0.00,,2013-03-11 18:42:00,
2013-03-11 13:53:00,81.0,63.0,29.99,South,170,3.0,3.0,54,0.00,,,0.00,,2013-03-11 18:53:00,
2013-03-11 14:02:00,82.0,64.0,29.98,SSE,151,5.0,7.0,54,0.00,,,0.00,,2013-03-11 19:02:00,
2013-03-11 14:12:00,82.0,64.0,29.98,SSE,151,5.0,7.0,54,0.00,,,0.00,,2013-03-11 19:12:00,
2013-03-11 14:22:00,82.0,63.0,29.97,SSE,151,2.0,4.0,53,0.00,,,0.00,,2013-03-11 19:22:00,
2013-03-11 14:33:00,82.0,64.0,29.97,South,180,7.0,7.0,54,0.00,,,0.00,,2013-03-11 19:33:00,
2013-03-11 14:42:00,82.0,64.0,29.97,South,180,7.0,7.0,54,0.00,,,0.00,,2013-03-11 19:42:00,
2013-03-11 14:53:00,83.0,65.0,29.97,South,180,2.0,4.0,54,0.00,,,0.00,,2013-03-11 19:53:00,
2013-03-11 15:02:00,82.0,63.0,29.96,South,180,2.0,4.0,53,0.00,,,0.00,,2013-03-11 20:02:00,
2013-03-11 15:12:00,82.0,63.0,29.96,South,180,2.0,4.0,53,0.00,,,0.00,,2013-03-11 20:12:00,
2013-03-11 15:22:00,81.0,64.0,29.95,SSE,165,2.0,3.0,56,0.00,,,0.00,,2013-03-11 20:22:00,
2013-03-11 15:32:00,82.0,64.0,29.94,South,180,3.0,5.0,54,0.00,,,0.00,,2013-03-11 20:32:00,
2013-03-11 15:43:00,82.0,64.0,29.94,South,180,3.0,5.0,54,0.00,,,0.00,,2013-03-11 20:43:00,
2013-03-11 15:53:00,82.0,63.0,29.93,South,189,3.0,5.0,53,0.00,,,0.00,,2013-03-11 20:53:00,
2013-03-11 16:03:00,82.0,62.0,29.92,SSE,167,1.0,5.0,51,0.00,,,0.00,,2013-03-11 21:03:00,
2013-03-11 16:22:00,81.0,62.0,29.91,South,171,3.0,7.0,53,0.00,,,0.00,,2013-03-11 21:22:00,
2013-03-11 16:32:00,81.0,62.0,29.91,SE,141,2.0,5.0,53,0.00,,,0.00,,2013-03-11 21:32:00,
2013-03-11 16:44:00,81.0,62.0,29.91,SE,141,2.0,5.0,53,0.00,,,0.00,,2013-03-11 21:44:00,
2013-03-11 16:53:00,83.0,64.0,29.91,WSW,240,2.0,3.0,53,0.00,,,0.00,,2013-03-11 21:53:00,
2013-03-11 17:03:00,83.0,64.0,29.91,SSW,203,5.0,5.0,52,0.00,,,0.00,,2013-03-11 22:03:00,
2013-03-11 17:12:00,83.0,64.0,29.91,SSW,203,5.0,5.0,52,0.00,,,0.00,,2013-03-11 22:12:00,
2013-03-11 17:22:00,84.0,64.0,29.90,SSE,158,2.0,5.0,51,0.00,,,0.00,,2013-03-11 22:22:00,
2013-03-11 17:32:00,84.0,65.0,29.91,SSE,158,2.0,5.0,53,0.00,,,0.00,,2013-03-11 22:32:00,
2013-03-11 17:43:00,84.0,65.0,29.91,SSE,158,2.0,5.0,53,0.00,,,0.00,,2013-03-11 22:43:00,
2013-03-11 17:53:00,83.0,64.0,29.91,South,180,1.0,3.0,53,0.00,,,0.00,,2013-03-11 22:53:00,
2013-03-11 18:03:00,82.0,64.0,29.92,South,180,2.0,6.0,54,0.00,,,0.00,,2013-03-11 23:03:00,
2013-03-11 18:12:00,82.0,64.0,29.92,South,180,2.0,6.0,54,0.00,,,0.00,,2013-03-11 23:12:00,
2013-03-11 18:22:00,78.0,63.0,29.92,South,180,2.0,4.0,60,0.00,,,0.00,,2013-03-11 23:22:00,
2013-03-11 18:32:00,77.0,63.0,29.93,South,180,1.0,1.0,62,0.00,,,0.00,,2013-03-11 23:32:00,
2013-03-11 18:43:00,77.0,63.0,29.93,South,180,1.0,1.0,62,0.00,,,0.00,,2013-03-11 23:43:00,
2013-03-11 18:53:00,74.0,62.0,29.94,South,173,0.0,1.0,66,0.00,,,0.00,,2013-03-11 23:53:00,
2013-03-11 19:02:00,73.0,61.0,29.94,South,180,1.0,1.0,67,0.00,,,0.00,,2013-03-12 00:02:00,
2013-03-11 19:12:00,73.0,61.0,29.94,South,180,1.0,1.0,67,0.00,,,0.00,,2013-03-12 00:12:00,
2013-03-11 19:23:00,72.0,62.0,29.94,South,180,0.0,1.0,70,0.00,,,0.00,,2013-03-12 00:23:00,
2013-03-11 19:33:00,72.0,62.0,29.93,SE,142,0.0,1.0,70,0.00,,,0.00,,2013-03-12 00:33:00,
2013-03-11 19:42:00,72.0,62.0,29.93,SE,142,0.0,1.0,70,0.00,,,0.00,,2013-03-12 00:42:00,
2013-03-11 19:54:00,71.0,62.0,29.93,SSE,147,1.0,1.0,72,0.00,,,0.00,,2013-03-12 00:54:00,
2013-03-11 20:02:00,70.0,61.0,29.93,South,169,0.0,2.0,74,0.00,,,0.00,,2013-03-12 01:02:00,
2013-03-11 20:12:00,70.0,61.0,29.93,South,169,0.0,2.0,74,0.00,,,0.00,,2013-03-12 01:12:00,
2013-03-11 20:22:00,69.0,60.0,29.93,SE,142,1.0,2.0,74,0.00,,,0.00,,2013-03-12 01:22:00,
2013-03-11 20:33:00,69.0,61.0,29.93,SE,143,2.0,3.0,75,0.00,,,0.00,,2013-03-12 01:33:00,
2013-03-11 20:42:00,69.0,61.0,29.93,SE,143,2.0,3.0,75,0.00,,,0.00,,2013-03-12 01:42:00,
2013-03-11 20:53:00,68.0,60.0,29.93,SSE,148,2.0,3.0,76,0.00,,,0.00,,2013-03-12 01:53:00,
2013-03-11 21:02:00,68.0,60.0,29.93,SSE,148,2.0,3.0,76,0.00,,,0.00,,2013-03-12 02:02:00,
2013-03-11 21:12:00,68.0,60.0,29.93,SSE,148,2.0,3.0,76,0.00,,,0.00,,2013-03-12 02:12:00,
2013-03-11 21:22:00,67.0,60.0,29.94,SE,135,0.0,2.0,79,0.00,,,0.00,,2013-03-12 02:22:00,
2013-03-11 21:32:00,66.0,60.0,29.94,SE,135,1.0,3.0,80,0.00,,,0.00,,2013-03-12 02:32:00,
2013-03-11 21:42:00,66.0,60.0,29.94,SE,135,1.0,3.0,80,0.00,,,0.00,,2013-03-12 02:42:00,
2013-03-11 21:52:00,66.0,60.0,29.94,SE,135,2.0,3.0,80,0.00,,,0.00,,2013-03-12 02:52:00,
2013-03-11 22:02:00,66.0,60.0,29.94,SE,135,2.0,3.0,81,0.00,,,0.00,,2013-03-12 03:02:00,
2013-03-11 22:12:00,66.0,60.0,29.94,SE,135,2.0,3.0,81,0.00,,,0.00,,2013-03-12 03:12:00,
2013-03-11 22:22:00,65.0,59.0,29.94,ESE,113,0.0,3.0,82,0.00,,,0.00,,2013-03-12 03:22:00,
2013-03-11 22:32:00,65.0,59.0,29.94,SE,126,1.0,4.0,82,0.00,,,0.00,,2013-03-12 03:32:00,
2013-03-11 22:42:00,65.0,59.0,29.94,SE,126,1.0,4.0,82,0.00,,,0.00,,2013-03-12 03:42:00,
2013-03-11 22:52:00,65.0,59.0,29.94,SE,135,1.0,4.0,82,0.00,,,0.00,,2013-03-12 03:52:00,
2013-03-11 23:02:00,64.0,58.0,29.94,ESE,113,1.0,2.0,82,0.00,,,0.00,,2013-03-12 04:02:00,
2013-03-11 23:13:00,64.0,58.0,29.94,ESE,113,1.0,2.0,82,0.00,,,0.00,,2013-03-12 04:13:00,
2013-03-11 23:22:00,64.0,58.0,29.94,ESE,113,1.0,2.0,82,0.00,,,0.00,,2013-03-12 04:22:00,
2013-03-11 23:32:00,64.0,59.0,29.94,East,90,0.0,1.0,83,0.00,,,0.00,,2013-03-12 04:32:00,
2013-03-11 23:43:00,64.0,59.0,29.94,East,90,0.0,1.0,83,0.00,,,0.00,,2013-03-12 04:43:00,
2013-03-11 23:52:00,64.0,59.0,29.94,SE,135,0.0,0.0,83,0.00,,,0.00,,2013-03-12 04:52:00,